LIED/DCI METAR and TAF weather

Enter ICAO airport designator
Station Type Date Time Source
LIED METAR 2019/10/23 19:55 UTC NOAA

LIED 231955Z 13020G32KT 9999 SCT020 SCT040 23/20 Q1010 RMK BKN VIS MIN 9999 WIND THR35 13025KT WIND THR17 /////KT BLU


Station Type Date Time Source
LIED Decoded METAR 2019/10/23 19:55 UTC NOAA

Decimomannu, Italy (LIED) 39-21N 008-58E 28M
Oct 23, 2019 - 03:55 PM EDT / 2019.10.23 1955 UTC
Wind: from the SE (130 degrees) at 23 MPH (20 KT) gusting to 37 MPH (32 KT):0
Visibility: greater than 7 mile(s):0
Sky conditions: partly cloudy
Temperature: 73 F (23 C)
Dew Point: 68 F (20 C)
Relative Humidity: 83%
Pressure (altimeter): 29.83 in. Hg (1010 hPa)
ob: LIED 231955Z 13020G32KT 9999 SCT020 SCT040 23/20 Q1010 RMK BKN VIS MIN 9999 WIND THR35 13025KT WIND THR17 /////KT BLU
cycle: 20

Station Type Date Time Source
LIED TAF 2015/03/04 18:18 UTC NOAA

TAF TAF LIED 041700Z 0418/0506 33014KT 9999 SCT020 BKN040 BKN060
TEMPO 0420/0502 33020KT 5000 RA OR SHRA FEW022CB

Example: see airport list